Time;durP1;ratioP1;P1;durP2;ratioP2;P2;SDS_P1;SDS_P2;PMS_P1;PMS_P2;Temp;Humidity;BMP_temperature;BMP_pressure;BME280_temperature;BME280_humidity;BME280_pressure;Samples;Min_cycle;Max_cycle;Signal;HPM_P1;HPM_P2
2023/05/05 00:00:59;;;;;;;;;;;14.80;99.90;;;;;;5036747;28;19933;-96
2023/05/05 00:03:26;;;;;;;;;;;14.70;99.90;;;;;;5040413;28;19926;-96
2023/05/05 00:05:54;;;;;;;;;;;14.70;99.90;;;;;;5041899;28;19927;-96
2023/05/05 00:08:21;;;;;;;;;;;14.70;99.90;;;;;;5040088;28;19976;-96
2023/05/05 00:10:49;;;;;;;;;;;14.70;99.90;;;;;;5042198;28;19909;-96
2023/05/05 00:13:16;;;;;;;;;;;14.70;99.90;;;;;;5037086;28;19940;-96
2023/05/05 00:15:45;;;;;;;;;;;14.70;99.90;;;;;;5038843;28;19921;-96
2023/05/05 00:18:13;;;;;;;;;;;14.60;99.90;;;;;;5038023;28;19909;-96
2023/05/05 00:20:40;;;;;;;;;;;14.60;99.90;;;;;;5037805;28;19913;-96
2023/05/05 00:23:07;;;;;;;;;;;14.60;99.90;;;;;;5034093;28;19921;-96
2023/05/05 00:25:34;;;;;;;;;;;14.50;99.90;;;;;;5053304;28;19921;-96
2023/05/05 00:28:01;;;;;;;;;;;14.50;99.90;;;;;;5039544;28;19913;-96
2023/05/05 00:30:27;;;;;;;;;;;14.50;99.90;;;;;;5036866;28;19944;-96
2023/05/05 00:32:56;;;;;;;;;;;14.50;99.90;;;;;;5057775;28;19920;-96
2023/05/05 00:35:23;;;;;;;;;;;14.50;99.90;;;;;;5035044;28;19921;-96
2023/05/05 00:37:50;;;;;;;;;;;14.50;99.90;;;;;;5036118;28;19915;-96
2023/05/05 00:40:18;;;;;;;;;;;14.40;99.90;;;;;;5036843;28;19933;-96
2023/05/05 00:42:46;;;;;;;;;;;14.40;99.90;;;;;;5051155;28;19913;-96
2023/05/05 00:45:14;;;;;;;;;;;14.40;99.90;;;;;;5049927;28;20509;-96
2023/05/05 00:47:42;;;;;;;;;;;14.40;99.90;;;;;;5039541;28;19921;-96
2023/05/05 00:50:14;;;;;;;;;;;14.30;99.90;;;;;;5037037;28;19933;-96
2023/05/05 00:52:41;;;;;;;;;;;14.30;99.90;;;;;;5040538;28;19937;-96
2023/05/05 00:55:08;;;;;;;;;;;14.30;99.90;;;;;;5052433;28;19958;-96
2023/05/05 00:57:35;;;;;;;;;;;14.30;99.90;;;;;;5034574;28;19921;-96
2023/05/05 01:00:03;;;;;;;;;;;14.20;99.90;;;;;;5039747;28;19939;-96
2023/05/05 01:02:30;;;;;;;;;;;14.20;99.90;;;;;;5059835;28;19913;-96
2023/05/05 01:04:58;;;;;;;;;;;;;;;;;;5034869;28;19941;-96
2023/05/05 01:07:32;;;;;;;;;;;14.20;99.90;;;;;;5038004;28;19914;-96
2023/05/05 01:10:02;;;;;;;;;;;14.20;99.90;;;;;;5036022;28;19928;-96
2023/05/05 01:12:33;;;;;;;;;;;14.10;99.90;;;;;;5051573;28;19920;-96
2023/05/05 01:15:02;;;;;;;;;;;14.10;99.90;;;;;;5039608;28;19925;-96
2023/05/05 01:17:45;;;;;;;;;;;14.10;99.90;;;;;;5038343;28;19921;-96
2023/05/05 01:20:15;;;;;;;;;;;14.10;99.90;;;;;;5035057;28;19909;-96
2023/05/05 01:22:46;;;;;;;;;;;14.00;99.90;;;;;;5051408;28;19960;-96
2023/05/05 01:25:22;;;;;;;;;;;14.00;99.90;;;;;;5038250;28;19947;-96
2023/05/05 01:27:55;;;;;;;;;;;14.00;99.90;;;;;;5034172;28;20023;-96
2023/05/05 01:30:39;;;;;;;;;;;14.00;99.90;;;;;;5032859;28;20200;-96
2023/05/05 01:33:10;;;;;;;;;;;14.00;99.90;;;;;;5035841;28;19945;-95
2023/05/05 01:35:40;;;;;;;;;;;13.90;99.90;;;;;;5049316;28;19917;-96
2023/05/05 01:38:09;;;;;;;;;;;13.90;99.90;;;;;;5054801;28;20192;-96
2023/05/05 01:40:38;;;;;;;;;;;13.90;99.90;;;;;;5051329;28;19952;-96
2023/05/05 01:43:07;;;;;;;;;;;13.80;99.90;;;;;;5033603;28;19921;-96
2023/05/05 01:45:38;;;;;;;;;;;13.80;99.90;;;;;;5054989;28;20318;-96
2023/05/05 01:48:06;;;;;;;;;;;13.80;99.90;;;;;;5058367;28;20023;-96
2023/05/05 01:50:35;;;;;;;;;;;13.80;99.90;;;;;;5051072;28;19913;-96
2023/05/05 01:53:03;;;;;;;;;;;13.80;99.90;;;;;;5049679;28;19913;-96
2023/05/05 01:55:32;;;;;;;;;;;13.80;99.90;;;;;;5043639;28;19913;-96
2023/05/05 01:57:59;;;;;;;;;;;13.70;99.90;;;;;;5051959;28;19915;-96
2023/05/05 02:00:27;;;;;;;;;;;13.70;99.90;;;;;;5036363;28;19920;-96
2023/05/05 02:02:55;;;;;;;;;;;13.70;99.90;;;;;;5040603;28;19921;-96
2023/05/05 02:05:23;;;;;;;;;;;13.70;99.90;;;;;;5053355;28;19921;-96
2023/05/05 02:07:53;;;;;;;;;;;13.70;99.90;;;;;;5045014;28;19933;-96
2023/05/05 02:10:20;;;;;;;;;;;13.70;99.90;;;;;;5041076;28;19909;-96
2023/05/05 02:12:47;;;;;;;;;;;13.60;99.90;;;;;;5036812;28;19922;-96
2023/05/05 02:15:15;;;;;;;;;;;13.70;99.90;;;;;;5035334;28;19980;-96
2023/05/05 02:17:42;;;;;;;;;;;13.60;99.90;;;;;;5035945;28;19968;-96
2023/05/05 02:20:11;;;;;;;;;;;13.60;99.90;;;;;;5034158;28;19976;-96
2023/05/05 02:22:38;;;;;;;;;;;13.50;99.90;;;;;;5047202;28;19945;-96
2023/05/05 02:25:07;;;;;;;;;;;13.60;99.90;;;;;;5034196;28;19921;-96
2023/05/05 02:27:35;;;;;;;;;;;13.50;99.90;;;;;;5047097;28;19914;-96
2023/05/05 02:30:04;;;;;;;;;;;13.50;99.90;;;;;;5049026;28;19921;-96
2023/05/05 02:32:32;;;;;;;;;;;13.50;99.90;;;;;;5047825;28;19909;-96
2023/05/05 02:35:03;;;;;;;;;;;13.50;99.90;;;;;;5035637;28;19932;-96
2023/05/05 02:37:31;;;;;;;;;;;13.50;99.90;;;;;;5038543;28;19909;-96
2023/05/05 02:40:01;;;;;;;;;;;13.50;99.90;;;;;;5050374;28;20035;-96
2023/05/05 02:42:34;;;;;;;;;;;13.40;99.90;;;;;;5033310;28;19944;-96
2023/05/05 02:45:05;;;;;;;;;;;13.40;99.90;;;;;;5048975;28;19921;-96
2023/05/05 02:47:35;;;;;;;;;;;13.40;99.90;;;;;;5050837;28;19913;-96
2023/05/05 02:50:02;;;;;;;;;;;13.40;99.90;;;;;;5033381;28;19913;-96
2023/05/05 02:52:30;;;;;;;;;;;13.40;99.90;;;;;;5034017;28;19936;-96
2023/05/05 02:54:57;;;;;;;;;;;13.40;99.90;;;;;;5028914;28;19923;-96
2023/05/05 02:57:27;;;;;;;;;;;13.40;99.90;;;;;;5031260;28;19984;-96
2023/05/05 03:00:04;;;;;;;;;;;13.40;99.90;;;;;;5051778;28;19920;-96
2023/05/05 03:02:44;;;;;;;;;;;13.30;99.90;;;;;;5051237;28;19929;-96
2023/05/05 03:05:17;;;;;;;;;;;13.30;99.90;;;;;;5051652;28;19937;-96
2023/05/05 03:07:50;;;;;;;;;;;13.30;99.90;;;;;;5045123;28;19916;-96
2023/05/05 03:10:20;;;;;;;;;;;13.30;99.90;;;;;;5037312;28;19957;-96
2023/05/05 03:12:53;;;;;;;;;;;13.30;99.90;;;;;;5039012;28;19916;-96
2023/05/05 03:15:30;;;;;;;;;;;13.30;99.90;;;;;;5053942;28;19944;-96
2023/05/05 03:17:58;;;;;;;;;;;13.30;99.90;;;;;;5037246;28;19928;-96
2023/05/05 03:20:27;;;;;;;;;;;13.20;99.90;;;;;;5039600;28;19913;-96
2023/05/05 03:22:56;;;;;;;;;;;13.20;99.90;;;;;;5038686;28;21016;-96
2023/05/05 03:25:23;;;;;;;;;;;13.20;99.90;;;;;;5038416;28;19921;-96
2023/05/05 03:27:50;;;;;;;;;;;13.20;99.90;;;;;;5053608;28;19913;-96
2023/05/05 03:30:20;;;;;;;;;;;13.20;99.90;;;;;;5038667;28;19921;-96
2023/05/05 03:32:52;;;;;;;;;;;13.10;99.90;;;;;;5049714;28;19932;-96
2023/05/05 03:35:20;;;;;;;;;;;13.10;99.90;;;;;;5038824;28;19913;-96
2023/05/05 03:37:47;;;;;;;;;;;13.10;99.90;;;;;;5039110;28;19912;-96
2023/05/05 03:40:16;;;;;;;;;;;13.10;99.90;;;;;;5041202;28;19929;-96
2023/05/05 03:42:43;;;;;;;;;;;13.10;99.90;;;;;;5034343;28;19913;-96
2023/05/05 03:45:11;;;;;;;;;;;13.10;99.90;;;;;;5053710;28;19925;-96
2023/05/05 03:47:39;;;;;;;;;;;13.00;99.90;;;;;;5054911;28;19916;-96
2023/05/05 03:50:10;;;;;;;;;;;13.10;99.90;;;;;;5044649;28;19929;-96
2023/05/05 03:52:37;;;;;;;;;;;13.10;99.90;;;;;;5037988;28;19909;-96
2023/05/05 03:55:05;;;;;;;;;;;13.10;99.90;;;;;;5054706;28;19920;-96
2023/05/05 03:57:33;;;;;;;;;;;13.00;99.90;;;;;;5054491;28;19912;-96
2023/05/05 04:00:00;;;;;;;;;;;13.00;99.90;;;;;;5044961;28;19985;-96
2023/05/05 04:02:27;;;;;;;;;;;13.00;99.90;;;;;;5051622;28;19913;-96
2023/05/05 04:04:54;;;;;;;;;;;13.00;99.90;;;;;;5040773;28;19915;-96
2023/05/05 04:07:23;;;;;;;;;;;13.00;99.90;;;;;;5039420;28;19924;-96
2023/05/05 04:09:50;;;;;;;;;;;13.00;99.90;;;;;;5040124;28;19931;-96
2023/05/05 04:12:18;;;;;;;;;;;13.00;99.90;;;;;;5054705;22;20409;-79
2023/05/05 04:14:45;;;;;;;;;;;12.90;99.90;;;;;;5009822;28;19931;-78
2023/05/05 04:17:13;;;;;;;;;;;13.00;99.90;;;;;;5004501;28;19963;-77
2023/05/05 04:19:40;;;;;;;;;;;12.90;99.90;;;;;;5020883;28;19931;-78
2023/05/05 04:22:08;;;;;;;;;;;12.90;99.90;;;;;;5006974;28;19925;-77
2023/05/05 04:24:37;;;;;;;;;;;12.90;99.90;;;;;;5005881;28;20748;-78
2023/05/05 04:27:04;;;;;;;;;;;12.90;99.90;;;;;;5003330;28;19929;-78
2023/05/05 04:29:31;;;;;;;;;;;12.90;99.90;;;;;;4993032;28;19925;-78
2023/05/05 04:31:58;;;;;;;;;;;12.90;99.90;;;;;;5008463;28;19950;-78
2023/05/05 04:34:25;;;;;;;;;;;12.90;99.90;;;;;;5002729;28;20004;-77
2023/05/05 04:36:52;;;;;;;;;;;12.80;99.90;;;;;;5003768;28;19995;-78
2023/05/05 04:39:20;;;;;;;;;;;12.80;99.90;;;;;;5001646;28;20411;-79
2023/05/05 04:41:49;;;;;;;;;;;12.80;99.90;;;;;;5004928;28;19933;-76
2023/05/05 04:44:16;;;;;;;;;;;12.80;99.90;;;;;;5004862;28;19925;-78
2023/05/05 04:46:45;;;;;;;;;;;12.80;99.90;;;;;;4998405;28;19932;-77
2023/05/05 04:49:12;;;;;;;;;;;12.80;99.90;;;;;;4998253;28;19960;-78
2023/05/05 04:51:41;;;;;;;;;;;12.80;99.90;;;;;;5009690;28;19932;-78
2023/05/05 04:54:08;;;;;;;;;;;12.80;99.90;;;;;;5007055;28;19933;-78
2023/05/05 04:56:35;;;;;;;;;;;12.80;99.90;;;;;;4989957;28;19937;-77
2023/05/05 04:59:04;;;;;;;;;;;12.80;99.90;;;;;;5009393;28;20400;-78
2023/05/05 05:01:31;;;;;;;;;;;12.80;99.90;;;;;;5003048;28;19952;-78
2023/05/05 05:03:58;;;;;;;;;;;12.80;99.90;;;;;;4996172;28;19948;-78
2023/05/05 05:06:26;;;;;;;;;;;12.80;99.90;;;;;;5002821;28;19925;-79
2023/05/05 05:08:52;;;;;;;;;;;12.80;99.90;;;;;;4985801;28;19945;-79
2023/05/05 05:11:24;;;;;;;;;;;12.80;99.90;;;;;;4992063;28;19964;-78
2023/05/05 05:13:51;;;;;;;;;;;12.80;99.90;;;;;;4993841;28;20290;-78
2023/05/05 05:16:20;;;;;;;;;;;12.80;99.90;;;;;;5002988;28;20028;-78
2023/05/05 05:18:52;;;;;;;;;;;12.80;99.90;;;;;;4999969;28;20261;-76
2023/05/05 05:21:19;;;;;;;;;;;12.80;99.90;;;;;;5002029;28;19925;-78
2023/05/05 05:23:46;;;;;;;;;;;12.80;99.90;;;;;;4998653;28;20682;-78
2023/05/05 05:26:13;;;;;;;;;;;12.80;99.90;;;;;;4992745;28;20636;-78
2023/05/05 05:28:40;;;;;;;;;;;12.70;99.90;;;;;;4995779;28;19943;-77
2023/05/05 05:31:07;;;;;;;;;;;12.80;99.90;;;;;;4996356;28;19925;-78
2023/05/05 05:33:35;;;;;;;;;;;12.70;99.90;;;;;;4999768;28;19925;-78
2023/05/05 05:36:02;;;;;;;;;;;12.80;99.90;;;;;;4985969;28;19936;-79
2023/05/05 05:38:30;;;;;;;;;;;12.80;99.90;;;;;;5010148;28;19932;-79
2023/05/05 05:41:04;;;;;;;;;;;12.80;99.90;;;;;;5010174;28;19929;-80
2023/05/05 05:43:31;;;;;;;;;;;12.80;99.90;;;;;;5011056;28;19925;-79
2023/05/05 05:45:58;;;;;;;;;;;12.80;99.90;;;;;;4988709;28;20235;-77
2023/05/05 05:48:28;;;;;;;;;;;12.80;99.90;;;;;;4995780;28;20198;-77
2023/05/05 05:50:58;;;;;;;;;;;12.80;99.90;;;;;;5000142;28;20383;-77
2023/05/05 05:53:25;;;;;;;;;;;12.80;99.90;;;;;;4945014;28;20395;-76
2023/05/05 05:55:53;;;;;;;;;;;12.80;99.90;;;;;;5000201;28;19964;-77
2023/05/05 05:58:20;;;;;;;;;;;12.80;99.90;;;;;;4998279;28;19933;-77
2023/05/05 06:00:48;;;;;;;;;;;12.80;99.90;;;;;;5002973;28;19933;-77
2023/05/05 06:03:14;;;;;;;;;;;12.90;99.90;;;;;;5007281;28;19929;-77
2023/05/05 06:05:42;;;;;;;;;;;12.90;99.90;;;;;;4980252;28;19972;-76
2023/05/05 06:08:10;;;;;;;;;;;12.90;99.90;;;;;;5005900;28;19968;-77
2023/05/05 06:10:42;;;;;;;;;;;12.90;99.90;;;;;;4989078;28;20400;-76
2023/05/05 06:13:14;;;;;;;;;;;12.90;99.90;;;;;;4998736;28;19940;-77
2023/05/05 06:15:44;;;;;;;;;;;12.90;99.90;;;;;;5007440;28;20430;-76
2023/05/05 06:18:13;;;;;;;;;;;12.90;99.90;;;;;;5007846;28;19925;-77
2023/05/05 06:20:40;;;;;;;;;;;13.00;99.90;;;;;;5005374;28;19936;-77
2023/05/05 06:23:07;;;;;;;;;;;13.00;99.90;;;;;;5004392;28;19925;-77
2023/05/05 06:25:39;;;;;;;;;;;13.00;99.90;;;;;;5006967;28;19925;-77
2023/05/05 06:28:06;;;;;;;;;;;13.10;99.90;;;;;;5010944;28;19925;-77
2023/05/05 06:30:33;;;;;;;;;;;13.10;99.90;;;;;;5006009;28;20275;-77
2023/05/05 06:33:00;;;;;;;;;;;13.10;99.90;;;;;;5003862;28;19926;-78
2023/05/05 06:35:26;;;;;;;;;;;13.10;99.90;;;;;;5006569;28;19925;-77
2023/05/05 06:37:53;;;;;;;;;;;13.10;99.90;;;;;;5004437;28;19936;-77
2023/05/05 06:40:20;;;;;;;;;;;13.10;99.90;;;;;;5010670;28;19925;-77
2023/05/05 06:42:48;;;;;;;;;;;13.10;99.90;;;;;;5006976;28;19934;-77
2023/05/05 06:45:21;;;;;;;;;;;13.10;99.90;;;;;;5010443;28;19933;-77
2023/05/05 06:47:48;;;;;;;;;;;13.20;99.90;;;;;;4996983;28;19926;-77
2023/05/05 06:50:15;;;;;;;;;;;13.20;99.90;;;;;;5009664;28;19975;-77
2023/05/05 06:52:41;;;;;;;;;;;13.20;99.90;;;;;;5007020;28;20020;-77
2023/05/05 06:55:09;;;;;;;;;;;13.20;99.90;;;;;;5015234;28;19925;-77
2023/05/05 06:57:36;;;;;;;;;;;13.20;99.90;;;;;;5007420;28;19933;-76
2023/05/05 07:00:08;;;;;;;;;;;13.30;99.90;;;;;;5008161;28;19961;-77
2023/05/05 07:02:36;;;;;;;;;;;13.30;99.90;;;;;;5010376;28;19992;-78
2023/05/05 07:05:03;;;;;;;;;;;13.40;99.90;;;;;;5011544;28;20033;-77
2023/05/05 07:07:31;;;;;;;;;;;13.40;99.90;;;;;;5001692;28;19981;-77
2023/05/05 07:09:58;;;;;;;;;;;13.40;99.90;;;;;;4990558;28;19936;-77
2023/05/05 07:12:24;;;;;;;;;;;13.40;99.90;;;;;;5008660;28;20036;-77
2023/05/05 07:14:54;;;;;;;;;;;13.50;99.90;;;;;;5010314;28;19980;-77
2023/05/05 07:17:22;;;;;;;;;;;13.50;99.90;;;;;;5010751;28;19925;-77
2023/05/05 07:19:50;;;;;;;;;;;13.50;99.90;;;;;;5011949;28;20006;-77
2023/05/05 07:22:16;;;;;;;;;;;13.60;99.90;;;;;;5004521;28;20447;-76
2023/05/05 07:24:43;;;;;;;;;;;13.60;99.90;;;;;;4987347;28;20265;-76
2023/05/05 07:27:10;;;;;;;;;;;13.60;99.90;;;;;;5009416;28;19926;-77
2023/05/05 07:29:39;;;;;;;;;;;13.70;99.90;;;;;;5010381;28;19941;-76
2023/05/05 07:32:06;;;;;;;;;;;13.70;99.90;;;;;;5005139;28;20462;-77
2023/05/05 07:34:36;;;;;;;;;;;13.70;99.90;;;;;;5007045;28;19932;-76
2023/05/05 07:37:04;;;;;;;;;;;13.70;99.90;;;;;;5009862;28;19991;-77
2023/05/05 07:39:30;;;;;;;;;;;13.70;99.90;;;;;;5010746;28;20028;-77
2023/05/05 07:42:00;;;;;;;;;;;13.80;99.90;;;;;;5002422;28;20331;-76
2023/05/05 07:44:27;;;;;;;;;;;13.80;99.90;;;;;;5008845;28;19925;-77
2023/05/05 07:46:54;;;;;;;;;;;13.80;99.90;;;;;;5009805;28;19987;-76
2023/05/05 07:49:21;;;;;;;;;;;13.90;99.90;;;;;;5012657;28;19940;-76
2023/05/05 07:51:50;;;;;;;;;;;13.90;99.90;;;;;;5004764;28;19925;-76
2023/05/05 07:54:17;;;;;;;;;;;14.00;99.90;;;;;;5011224;28;19929;-77
2023/05/05 07:56:45;;;;;;;;;;;14.10;99.90;;;;;;5009566;28;19933;-76
2023/05/05 07:59:12;;;;;;;;;;;14.10;99.90;;;;;;5003240;28;19929;-76
2023/05/05 08:01:39;;;;;;;;;;;14.10;99.90;;;;;;5006811;28;19925;-77
2023/05/05 08:04:07;;;;;;;;;;;14.20;99.90;;;;;;5009714;28;19925;-77
2023/05/05 08:06:34;;;;;;;;;;;14.20;99.90;;;;;;5009748;28;19929;-77
2023/05/05 08:09:05;;;;;;;;;;;14.20;99.90;;;;;;5006155;28;19940;-76
2023/05/05 08:11:32;;;;;;;;;;;14.30;99.90;;;;;;5010011;28;20410;-76
2023/05/05 08:13:59;;;;;;;;;;;14.30;99.90;;;;;;5014788;28;19929;-76
2023/05/05 08:16:26;;;;;;;;;;;14.30;99.90;;;;;;5006465;28;19932;-76
2023/05/05 08:18:53;;;;;;;;;;;14.30;99.90;;;;;;5007715;28;19936;-76
2023/05/05 08:21:20;;;;;;;;;;;14.40;99.90;;;;;;5008057;28;19934;-77
2023/05/05 08:23:46;;;;;;;;;;;14.40;99.90;;;;;;5008171;28;19957;-76
2023/05/05 08:26:15;;;;;;;;;;;14.50;99.90;;;;;;5001845;28;19934;-77
2023/05/05 08:28:42;;;;;;;;;;;14.60;99.90;;;;;;5008316;28;19949;-77
2023/05/05 08:31:09;;;;;;;;;;;14.60;99.90;;;;;;4994432;28;19953;-77
2023/05/05 08:33:35;;;;;;;;;;;14.60;99.90;;;;;;5009318;28;20025;-76
2023/05/05 08:36:02;;;;;;;;;;;14.70;99.90;;;;;;5012596;28;20302;-76
2023/05/05 08:38:29;;;;;;;;;;;14.70;99.90;;;;;;5003418;28;19929;-76
2023/05/05 08:40:56;;;;;;;;;;;14.80;99.90;;;;;;5003894;28;19929;-76
2023/05/05 08:43:27;;;;;;;;;;;14.80;99.90;;;;;;5007272;28;20323;-76
2023/05/05 08:45:55;;;;;;;;;;;14.90;99.90;;;;;;5009247;28;19973;-76
2023/05/05 08:48:23;;;;;;;;;;;15.00;99.90;;;;;;5009433;28;19932;-77
2023/05/05 08:50:54;;;;;;;;;;;15.00;99.90;;;;;;5005448;28;19933;-76
2023/05/05 08:53:26;;;;;;;;;;;15.10;99.90;;;;;;5004330;28;19933;-77
2023/05/05 08:55:55;;;;;;;;;;;15.20;99.90;;;;;;5005046;28;19975;-76
2023/05/05 08:58:22;;;;;;;;;;;15.20;99.90;;;;;;5005038;28;19930;-77
2023/05/05 09:00:51;;;;;;;;;;;15.30;99.90;;;;;;5004500;28;19926;-76
2023/05/05 09:03:18;;;;;;;;;;;15.30;99.90;;;;;;5005180;28;19929;-76
2023/05/05 09:05:45;;;;;;;;;;;15.30;99.90;;;;;;5008231;28;20024;-76
2023/05/05 09:08:12;;;;;;;;;;;15.30;99.90;;;;;;5001767;28;19976;-76
2023/05/05 09:10:40;;;;;;;;;;;15.30;99.90;;;;;;4994627;28;20356;-77
2023/05/05 09:13:07;;;;;;;;;;;15.30;99.90;;;;;;5000609;28;19933;-78
2023/05/05 09:15:34;;;;;;;;;;;15.30;99.90;;;;;;5004741;28;20347;-78
2023/05/05 09:18:04;;;;;;;;;;;15.40;99.90;;;;;;5013706;28;20474;-78
2023/05/05 09:20:33;;;;;;;;;;;15.40;99.90;;;;;;5005640;28;19933;-79
2023/05/05 09:23:07;;;;;;;;;;;15.50;99.90;;;;;;5004147;28;20677;-80
2023/05/05 09:25:33;;;;;;;;;;;15.50;99.90;;;;;;5005718;28;19933;-78
2023/05/05 09:28:07;;;;;;;;;;;15.50;99.90;;;;;;5007515;28;20008;-78
2023/05/05 09:30:34;;;;;;;;;;;15.60;99.90;;;;;;5004645;28;19960;-77
2023/05/05 09:33:03;;;;;;;;;;;15.60;99.90;;;;;;5001714;28;19956;-77
2023/05/05 09:35:47;;;;;;;;;;;15.70;99.90;;;;;;5007018;28;19930;-78
2023/05/05 09:38:14;;;;;;;;;;;15.70;99.90;;;;;;5004939;28;19926;-77
2023/05/05 09:40:45;;;;;;;;;;;15.80;99.90;;;;;;5008062;28;20392;-77
2023/05/05 09:43:12;;;;;;;;;;;15.90;99.90;;;;;;5000700;28;19940;-77
2023/05/05 09:45:39;;;;;;;;;;;15.90;99.90;;;;;;4999325;28;20340;-77
2023/05/05 09:48:22;;;;;;;;;;;15.90;99.90;;;;;;5007003;28;20459;-77
2023/05/05 09:50:50;;;;;;;;;;;15.90;99.90;;;;;;5008945;28;19993;-78
2023/05/05 09:53:16;;;;;;;;;;;16.00;99.90;;;;;;5005929;28;20285;-77
2023/05/05 09:55:52;;;;;;;;;;;16.00;99.90;;;;;;4986252;28;19979;-78
2023/05/05 09:58:19;;;;;;;;;;;16.00;99.90;;;;;;5002319;28;19929;-81
2023/05/05 10:00:46;;;;;;;;;;;16.10;99.90;;;;;;4988798;28;20587;-78
2023/05/05 10:03:15;;;;;;;;;;;16.10;99.90;;;;;;5005654;28;19948;-79
2023/05/05 10:05:46;;;;;;;;;;;16.10;99.90;;;;;;5005205;28;19929;-77
2023/05/05 10:08:13;;;;;;;;;;;16.10;99.90;;;;;;5004151;28;19925;-78
2023/05/05 10:10:46;;;;;;;;;;;16.10;99.90;;;;;;5008586;28;19933;-78
2023/05/05 10:13:13;;;;;;;;;;;16.10;99.90;;;;;;4995751;28;19941;-78
2023/05/05 10:15:42;;;;;;;;;;;16.10;99.90;;;;;;5002119;28;19933;-77
2023/05/05 10:18:09;;;;;;;;;;;16.10;99.90;;;;;;5007646;28;19925;-77
2023/05/05 10:20:38;;;;;;;;;;;16.10;99.90;;;;;;4999754;28;19934;-77
2023/05/05 10:23:08;;;;;;;;;;;16.10;99.90;;;;;;5002773;28;19934;-77
2023/05/05 10:25:37;;;;;;;;;;;16.10;99.90;;;;;;5003648;28;19924;-79
2023/05/05 10:28:06;;;;;;;;;;;16.10;99.90;;;;;;4999756;28;19996;-77
2023/05/05 10:30:35;;;;;;;;;;;16.20;99.90;;;;;;5000834;28;20296;-77
2023/05/05 10:33:04;;;;;;;;;;;16.20;99.90;;;;;;5007223;28;19956;-75
2023/05/05 10:35:32;;;;;;;;;;;16.20;99.90;;;;;;5002019;28;19926;-76
2023/05/05 10:38:01;;;;;;;;;;;16.30;99.90;;;;;;4981333;28;19941;-77
2023/05/05 10:40:28;;;;;;;;;;;16.40;99.90;;;;;;5004848;28;19930;-78
2023/05/05 10:42:55;;;;;;;;;;;16.40;99.90;;;;;;4999848;28;19933;-76
2023/05/05 10:45:22;;;;;;;;;;;16.40;99.90;;;;;;4998190;28;20020;-76
2023/05/05 10:47:49;;;;;;;;;;;16.50;99.90;;;;;;4999600;28;20024;-76
2023/05/05 10:50:23;;;;;;;;;;;16.50;99.90;;;;;;4999781;28;20388;-76
2023/05/05 10:52:57;;;;;;;;;;;16.50;99.90;;;;;;4997570;28;19952;-76
2023/05/05 10:55:32;;;;;;;;;;;16.50;99.90;;;;;;4992674;28;19949;-77
2023/05/05 10:57:59;;;;;;;;;;;16.50;99.90;;;;;;4998688;28;19968;-77
2023/05/05 11:00:45;;;;;;;;;;;16.50;99.90;;;;;;4992524;28;19934;-76
2023/05/05 11:03:19;;;;;;;;;;;16.50;99.90;;;;;;4979174;28;19940;-77
2023/05/05 11:06:01;;;;;;;;;;;16.50;99.90;;;;;;4976450;28;19925;-76
2023/05/05 11:08:28;;;;;;;;;;;16.50;99.90;;;;;;4990557;28;19933;-77
2023/05/05 11:10:56;;;;;;;;;;;16.60;99.90;;;;;;4997128;28;19926;-76
2023/05/05 11:13:23;;;;;;;;;;;16.60;99.90;;;;;;4994203;28;20500;-76
2023/05/05 11:15:51;;;;;;;;;;;16.70;99.90;;;;;;4995614;28;19940;-76
2023/05/05 11:18:39;;;;;;;;;;;16.70;99.90;;;;;;4990412;28;20409;-76
2023/05/05 11:21:15;;;;;;;;;;;16.70;99.90;;;;;;4986349;28;20535;-76
2023/05/05 11:23:43;;;;;;;;;;;16.70;99.90;;;;;;4991982;28;20649;-76
2023/05/05 11:26:12;;;;;;;;;;;16.70;99.90;;;;;;4979195;28;19967;-76
2023/05/05 11:28:54;;;;;;;;;;;16.70;99.90;;;;;;4990992;28;19935;-77
2023/05/05 11:31:21;;;;;;;;;;;16.70;99.90;;;;;;4988703;28;19988;-76
2023/05/05 11:33:48;;;;;;;;;;;16.80;99.90;;;;;;4992491;28;20368;-76
2023/05/05 11:36:16;;;;;;;;;;;16.90;99.90;;;;;;4990149;28;20030;-76
2023/05/05 11:38:48;;;;;;;;;;;16.90;99.90;;;;;;4988303;28;20291;-76
2023/05/05 11:41:20;;;;;;;;;;;16.90;99.90;;;;;;5001582;28;20699;-77
2023/05/05 11:43:46;;;;;;;;;;;17.00;99.90;;;;;;4991543;28;19999;-76
2023/05/05 11:46:14;;;;;;;;;;;17.00;99.90;;;;;;4995008;28;19933;-76
2023/05/05 11:48:44;;;;;;;;;;;17.00;99.90;;;;;;4994480;28;21400;-76
2023/05/05 11:51:12;;;;;;;;;;;17.00;99.90;;;;;;5003672;28;19929;-76
2023/05/05 11:53:41;;;;;;;;;;;17.00;99.90;;;;;;5002059;28;20012;-77
2023/05/05 11:56:09;;;;;;;;;;;17.00;99.90;;;;;;5001339;28;20407;-76
2023/05/05 11:58:37;;;;;;;;;;;17.00;99.90;;;;;;4984462;28;20416;-76
2023/05/05 12:01:05;;;;;;;;;;;17.10;99.90;;;;;;4986852;28;21612;-75
2023/05/05 12:03:34;;;;;;;;;;;17.30;99.90;;;;;;5000922;28;20358;-76
2023/05/05 12:06:01;;;;;;;;;;;17.30;99.90;;;;;;4990200;28;19932;-75
2023/05/05 12:08:28;;;;;;;;;;;17.30;99.90;;;;;;5004800;28;19925;-75
2023/05/05 12:11:02;;;;;;;;;;;17.30;99.90;;;;;;5006566;28;19926;-75
2023/05/05 12:13:29;;;;;;;;;;;17.30;99.90;;;;;;5006951;28;19937;-75
2023/05/05 12:16:07;;;;;;;;;;;17.30;99.90;;;;;;5003498;28;20236;-75
2023/05/05 12:18:34;;;;;;;;;;;17.40;99.90;;;;;;5004104;28;19933;-75
2023/05/05 12:21:01;;;;;;;;;;;17.40;99.90;;;;;;5011175;28;19996;-75
2023/05/05 12:23:29;;;;;;;;;;;17.40;99.90;;;;;;5003544;28;19935;-75
2023/05/05 12:25:56;;;;;;;;;;;17.50;99.90;;;;;;5003126;28;19926;-75
2023/05/05 12:28:22;;;;;;;;;;;17.50;99.90;;;;;;5006338;28;19971;-75
2023/05/05 12:30:56;;;;;;;;;;;17.60;99.90;;;;;;5009482;28;19948;-74
2023/05/05 12:33:25;;;;;;;;;;;17.60;99.90;;;;;;5006310;28;19926;-75
2023/05/05 12:35:52;;;;;;;;;;;17.70;99.90;;;;;;5004941;28;19933;-75
2023/05/05 12:38:18;;;;;;;;;;;17.70;99.90;;;;;;5006549;28;19930;-75
2023/05/05 12:40:46;;;;;;;;;;;17.70;99.90;;;;;;4989552;28;20035;-75
2023/05/05 12:43:25;;;;;;;;;;;17.80;99.90;;;;;;5006051;28;19936;-75
2023/05/05 12:46:00;;;;;;;;;;;17.70;99.90;;;;;;5002711;28;19930;-75
2023/05/05 12:48:28;;;;;;;;;;;17.70;99.90;;;;;;5006453;28;20336;-75
2023/05/05 12:50:55;;;;;;;;;;;17.70;99.90;;;;;;5009262;28;19932;-75
2023/05/05 12:53:22;;;;;;;;;;;17.80;99.90;;;;;;5005228;28;20036;-75
2023/05/05 12:55:50;;;;;;;;;;;17.80;99.90;;;;;;5006245;28;19926;-75
2023/05/05 12:58:16;;;;;;;;;;;17.90;99.90;;;;;;5007076;28;20000;-75
2023/05/05 13:00:43;;;;;;;;;;;17.80;99.90;;;;;;5001688;28;20479;-76
2023/05/05 13:03:18;;;;;;;;;;;17.90;99.90;;;;;;5006560;28;19957;-75
2023/05/05 13:05:46;;;;;;;;;;;17.90;99.90;;;;;;5004892;28;19964;-76
2023/05/05 13:08:13;;;;;;;;;;;17.90;99.90;;;;;;5004938;28;19929;-75
2023/05/05 13:10:54;;;;;;;;;;;17.90;99.90;;;;;;5004065;28;19929;-75
2023/05/05 13:13:21;;;;;;;;;;;17.90;99.90;;;;;;5006297;28;19932;-75
2023/05/05 13:15:48;;;;;;;;;;;18.00;99.90;;;;;;5004451;28;19940;-74
2023/05/05 13:18:15;;;;;;;;;;;18.00;99.90;;;;;;5009852;28;19987;-75
2023/05/05 13:20:42;;;;;;;;;;;18.10;99.90;;;;;;5005787;28;19936;-75
2023/05/05 13:23:10;;;;;;;;;;;18.30;99.90;;;;;;5000383;28;19966;-75
2023/05/05 13:25:37;;;;;;;;;;;18.30;99.90;;;;;;5007068;28;20397;-75
2023/05/05 13:28:04;;;;;;;;;;;18.40;99.90;;;;;;4990896;28;20024;-74
2023/05/05 13:30:31;;;;;;;;;;;18.50;99.90;;;;;;4995837;28;19925;-75
2023/05/05 13:33:02;;;;;;;;;;;18.60;99.90;;;;;;4998967;28;19929;-75
2023/05/05 13:35:32;;;;;;;;;;;18.70;99.90;;;;;;4999522;28;19940;-74
2023/05/05 13:37:59;;;;;;;;;;;18.70;99.90;;;;;;4995117;28;19929;-74
2023/05/05 13:40:30;;;;;;;;;;;18.70;99.90;;;;;;4998244;28;19926;-75
2023/05/05 13:42:57;;;;;;;;;;;18.70;99.90;;;;;;4998920;28;19926;-74
2023/05/05 13:45:24;;;;;;;;;;;18.70;99.90;;;;;;5004801;28;19965;-73
2023/05/05 13:47:51;;;;;;;;;;;18.80;99.90;;;;;;5001446;28;19933;-74
2023/05/05 13:50:19;;;;;;;;;;;18.80;99.90;;;;;;5009416;28;19932;-74
2023/05/05 13:52:46;;;;;;;;;;;18.80;99.90;;;;;;5007367;28;19925;-74
2023/05/05 13:55:14;;;;;;;;;;;18.80;99.90;;;;;;5009649;28;20607;-74
2023/05/05 13:57:42;;;;;;;;;;;18.80;99.90;;;;;;5010717;28;20056;-76
2023/05/05 14:00:10;;;;;;;;;;;18.80;99.90;;;;;;5011450;28;20447;-74
2023/05/05 14:02:38;;;;;;;;;;;18.90;99.90;;;;;;5007732;28;19979;-74
2023/05/05 14:05:05;;;;;;;;;;;18.90;99.90;;;;;;5005455;28;19929;-74
2023/05/05 14:07:32;;;;;;;;;;;18.90;99.90;;;;;;5007911;28;19936;-74
2023/05/05 14:09:59;;;;;;;;;;;18.90;99.90;;;;;;5002794;28;19932;-74
2023/05/05 14:12:26;;;;;;;;;;;19.00;99.90;;;;;;5006661;28;19933;-75
2023/05/05 14:14:54;;;;;;;;;;;19.00;99.90;;;;;;5005558;28;20558;-74
2023/05/05 14:17:21;;;;;;;;;;;19.00;99.90;;;;;;5003208;28;19926;-74
2023/05/05 14:19:48;;;;;;;;;;;19.10;99.90;;;;;;5008464;28;19932;-74
2023/05/05 14:22:15;;;;;;;;;;;19.00;99.90;;;;;;5004327;28;19995;-76
2023/05/05 14:24:41;;;;;;;;;;;19.10;99.90;;;;;;5002574;28;19926;-76
2023/05/05 14:27:08;;;;;;;;;;;19.20;99.90;;;;;;5006296;28;20273;-76